This is the latest recevied weather packets stored in our database for station/object LRSB. If no packets are shown the sender has not sent any weather packets the latest 10 day(s).
| Time | Temp. | Humidity | Pressure | Rain* | Wind** | Luminosity | Snow |
|---|---|---|---|---|---|---|---|
| 1777429091 | 6.11° C | 71% | 1018 hPa | - | - | - | - |
| 1777428191 | 6.11° C | 71% | 1018 hPa | - | - | - | - |
| 1777427291 | 6.11° C | 71% | 1018 hPa | - | - | - | - |
| 1777426391 | 6.11° C | 71% | 1018 hPa | - | - | - | - |
| 1777425491 | 7.22° C | 66% | 1019 hPa | - | - | - | - |
| 1777424592 | 7.22° C | 66% | 1019 hPa | - | - | - | - |
| 1777423691 | 6.11° C | 71% | 1019 hPa | - | - | - | - |
| 1777422791 | 6.11° C | 71% | 1019 hPa | - | - | - | - |
| 1777421891 | 7.22° C | 66% | 1019 hPa | - | - | - | - |
| 1777420991 | 7.22° C | 66% | 1019 hPa | - | - | - | - |
| 1777420091 | 7.22° C | 66% | 1019 hPa | - | - | - | - |
| 1777419191 | 7.22° C | 66% | 1019 hPa | - | - | - | - |
| 1777418291 | 7.78° C | 62% | 1019 hPa | - | - | - | - |
| 1777417391 | 7.78° C | 62% | 1019 hPa | - | - | - | - |
| 1777416493 | 7.22° C | 66% | 1019 hPa | - | - | - | - |
| 1777415591 | 7.22° C | 66% | 1019 hPa | - | - | - | - |
| 1777414691 | 7.22° C | 71% | 1019 hPa | - | - | - | - |
| 1777413792 | 7.22° C | 71% | 1019 hPa | - | - | - | - |
| 1777412891 | 7.78° C | 66% | 1019 hPa | - | - | - | - |
| 1777411991 | 7.78° C | 66% | 1019 hPa | - | - | - | - |
| 1777411091 | 8.89° C | 58% | 1019 hPa | - | - | - | - |
| 1777410191 | 8.89° C | 58% | 1019 hPa | - | - | - | - |
| 1777409332 | 8.89° C | 62% | 1018 hPa | - | - | - | - |
| 1777408391 | 8.89° C | 62% | 1018 hPa | - | - | - | - |
| 1777407491 | 7.78° C | 66% | 1018 hPa | - | - | - | - |
* Rain since midnight (hover to see other rain measurements)
** Current wind speed in m/s (hover to see current wind gust speed)